createdAt,value
2019-04-20T00:00:00.777Z,9.63
2019-04-20T00:02:23.736Z,9.63
2019-04-20T00:04:47.297Z,9.63
2019-04-20T00:07:12.185Z,10.40
2019-04-20T00:09:39.579Z,10.07
2019-04-20T00:12:08.709Z,9.80
2019-04-20T00:14:29.636Z,9.37
2019-04-20T00:16:51.197Z,8.47
2019-04-20T00:19:22.653Z,9.67
2019-04-20T00:21:47.039Z,10.10
2019-04-20T00:24:21.047Z,10.97
2019-04-20T00:29:24.830Z,11.03
2019-04-20T00:31:45.802Z,11.63
2019-04-20T00:34:06.122Z,10.03
2019-04-20T00:36:22.110Z,10.20
2019-04-20T00:38:51.581Z,10.53
2019-04-20T00:41:13.711Z,10.03
2019-04-20T00:43:38.779Z,10.47
2019-04-20T00:46:08.267Z,9.40
2019-04-20T00:48:40.333Z,9.83
2019-04-20T00:51:11.545Z,9.63
2019-04-20T00:53:25.797Z,9.07
2019-04-20T00:55:42.229Z,10.17
2019-04-20T00:58:18.487Z,8.80
2019-04-20T01:00:54.266Z,12.80
2019-04-20T01:03:14.442Z,10.97
2019-04-20T01:05:50.538Z,12.77
2019-04-20T01:08:00.026Z,10.30
2019-04-20T01:10:21.703Z,8.97
2019-04-20T01:12:45.880Z,10.27
2019-04-20T01:15:16.799Z,10.27
2019-04-20T01:17:37.965Z,10.83
2019-04-20T01:20:01.149Z,8.67
2019-04-20T01:22:27.314Z,10.17
2019-04-20T01:24:51.598Z,9.43
2019-04-20T01:27:29.636Z,10.33
2019-04-20T01:29:48.798Z,11.53
2019-04-20T01:32:15.162Z,12.23
2019-04-20T01:34:42.730Z,11.13
2019-04-20T01:37:09.313Z,10.43
2019-04-20T01:39:28.727Z,13.00
2019-04-20T01:41:46.038Z,11.30
2019-04-20T01:44:09.496Z,9.47
2019-04-20T01:46:34.667Z,8.03
2019-04-20T01:49:05.001Z,11.83
2019-04-20T01:51:29.741Z,11.13
2019-04-20T01:54:06.707Z,9.43
2019-04-20T01:56:27.514Z,10.33
2019-04-20T01:58:59.109Z,9.43
2019-04-20T02:01:25.157Z,8.67
2019-04-20T02:03:53.785Z,10.13
2019-04-20T02:06:21.304Z,10.33
2019-04-20T02:08:44.047Z,10.57
2019-04-20T02:11:09.382Z,9.70
2019-04-20T02:13:40.155Z,11.43
2019-04-20T02:16:09.533Z,9.60
2019-04-20T02:18:36.471Z,9.57
2019-04-20T02:21:07.296Z,11.60
2019-04-20T02:23:24.989Z,10.83
2019-04-20T02:25:39.697Z,11.57
2019-04-20T02:28:22.854Z,10.00
2019-04-20T02:31:06.646Z,10.67
2019-04-20T02:33:37.892Z,11.00
2019-04-20T02:36:00.657Z,10.83
2019-04-20T02:38:33.941Z,9.70
2019-04-20T02:40:51.076Z,10.13
2019-04-20T02:48:13.439Z,11.20
2019-04-20T02:50:34.211Z,10.97
2019-04-20T02:52:56.313Z,9.28
2019-04-20T02:55:43.544Z,11.30
2019-04-20T02:57:54.827Z,10.97
2019-04-20T03:00:22.065Z,9.13
2019-04-20T03:02:18.460Z,8.77
2019-04-20T03:04:37.148Z,10.77
2019-04-20T03:07:08.485Z,11.20
2019-04-20T03:09:39.959Z,9.67
2019-04-20T03:12:08.173Z,9.27
2019-04-20T03:14:29.304Z,10.10
2019-04-20T03:16:50.335Z,11.03
2019-04-20T03:19:18.686Z,11.73
2019-04-20T03:21:47.896Z,9.87
2019-04-20T03:24:20.775Z,9.73
2019-04-20T03:26:37.852Z,9.00
2019-04-20T03:29:11.664Z,14.87
2019-04-20T03:32:03.757Z,10.40
2019-04-20T03:36:42.609Z,11.70
2019-04-20T03:38:57.390Z,11.43
2019-04-20T03:41:16.258Z,11.97
2019-04-20T03:43:28.793Z,11.87
2019-04-20T03:45:59.489Z,9.93
2019-04-20T03:48:39.245Z,9.23
2019-04-20T03:51:02.102Z,10.20
2019-04-20T03:53:29.244Z,8.93
2019-04-20T03:55:56.677Z,10.93
2019-04-20T03:58:39.072Z,9.20
2019-04-20T04:01:45.612Z,9.53
2019-04-20T04:04:06.648Z,10.33
2019-04-20T04:06:17.770Z,9.20
2019-04-20T04:08:40.872Z,10.67
2019-04-20T04:11:18.888Z,10.30
2019-04-20T04:13:24.839Z,10.07
2019-04-20T04:15:55.605Z,9.50
2019-04-20T04:18:24.184Z,10.60
2019-04-20T04:20:47.869Z,8.80
2019-04-20T04:23:24.622Z,9.37
2019-04-20T04:25:54.546Z,9.53
2019-04-20T04:28:15.237Z,9.53
2019-04-20T04:30:39.323Z,11.23
2019-04-20T04:33:32.920Z,8.80
2019-04-20T04:35:24.430Z,12.97
2019-04-20T04:37:57.019Z,9.67
2019-04-20T04:40:31.687Z,9.83
2019-04-20T04:42:52.280Z,9.33
2019-04-20T04:45:03.931Z,11.83
2019-04-20T04:47:21.942Z,9.57
2019-04-20T04:49:57.272Z,10.43
2019-04-20T04:52:15.402Z,10.60
2019-04-20T04:54:46.180Z,9.53
2019-04-20T04:57:01.166Z,12.20
2019-04-20T04:59:25.721Z,10.50
2019-04-20T05:01:53.410Z,10.30
2019-04-20T05:04:32.699Z,10.47
2019-04-20T05:06:53.671Z,9.77
2019-04-20T05:09:10.391Z,11.80
2019-04-20T05:11:32.019Z,11.53
2019-04-20T05:14:02.219Z,10.37
2019-04-20T05:16:43.169Z,11.13
2019-04-20T05:19:09.389Z,9.57
2019-04-20T05:21:31.486Z,9.93
2019-04-20T05:23:53.520Z,11.67
2019-04-20T05:26:36.076Z,10.20
2019-04-20T05:28:48.326Z,10.33
2019-04-20T05:31:07.707Z,11.28
2019-04-20T05:33:48.536Z,11.27
2019-04-20T05:36:16.366Z,9.97
2019-04-20T05:41:04.583Z,10.53
2019-04-20T05:43:43.845Z,13.37
2019-04-20T05:46:06.203Z,10.03
2019-04-20T05:48:33.683Z,9.97
2019-04-20T05:50:58.781Z,9.23
2019-04-20T05:53:26.449Z,8.97
2019-04-20T05:55:49.261Z,11.00
2019-04-20T05:58:17.872Z,10.50
2019-04-20T06:00:47.988Z,11.57
2019-04-20T06:03:05.659Z,12.23
2019-04-20T06:05:39.602Z,10.37
2019-04-20T06:08:00.734Z,10.13
2019-04-20T06:10:27.476Z,10.63
2019-04-20T06:12:49.994Z,10.67
2019-04-20T06:15:13.300Z,11.47
2019-04-20T06:18:02.884Z,9.00
2019-04-20T06:20:39.202Z,10.07
2019-04-20T06:23:05.910Z,9.43
2019-04-20T06:27:52.467Z,10.93
2019-04-20T06:30:13.653Z,29.33
2019-04-20T06:33:34.636Z,50.53
2019-04-20T06:36:00.925Z,49.30
2019-04-20T06:38:29.892Z,30.73
2019-04-20T06:41:03.571Z,27.60
2019-04-20T06:43:05.204Z,19.80
2019-04-20T06:45:39.844Z,17.90
2019-04-20T06:47:57.849Z,15.17
2019-04-20T06:50:18.672Z,12.50
2019-04-20T06:52:36.859Z,14.03
2019-04-20T06:55:36.878Z,14.73
2019-04-20T06:57:52.850Z,13.67
2019-04-20T07:00:00.813Z,13.27
2019-04-20T07:02:29.500Z,16.90
2019-04-20T07:07:22.423Z,12.90
2019-04-20T07:09:55.622Z,19.10
2019-04-20T07:12:06.437Z,15.73
2019-04-20T07:14:31.530Z,16.30
2019-04-20T07:17:30.849Z,14.23
2019-04-20T07:19:40.183Z,12.83
2019-04-20T07:22:21.711Z,13.07
2019-04-20T07:24:45.846Z,11.17
2019-04-20T07:27:04.593Z,8.80
2019-04-20T07:29:33.294Z,9.90
2019-04-20T07:31:50.041Z,10.17
2019-04-20T07:34:20.366Z,10.33
2019-04-20T07:36:50.281Z,10.07
2019-04-20T07:39:15.855Z,9.00
2019-04-20T07:41:42.965Z,7.13
2019-04-20T07:44:23.957Z,10.03
2019-04-20T07:46:41.228Z,7.70
2019-04-20T07:48:49.179Z,9.73
2019-04-20T07:51:04.810Z,9.47
2019-04-20T07:53:33.334Z,14.07
2019-04-20T07:56:07.266Z,11.87
2019-04-20T07:58:23.070Z,12.27
2019-04-20T08:01:05.740Z,8.47
2019-04-20T08:03:28.380Z,8.97
2019-04-20T08:05:59.603Z,8.40
2019-04-20T08:08:28.183Z,8.30
2019-04-20T08:10:54.285Z,9.27
2019-04-20T08:13:35.412Z,10.43
2019-04-20T08:18:17.993Z,9.00
2019-04-20T08:20:41.558Z,9.67
2019-04-20T08:23:09.801Z,9.73
2019-04-20T08:25:26.561Z,8.03
2019-04-20T08:27:52.960Z,10.37
2019-04-20T08:30:38.439Z,8.90
2019-04-20T08:33:28.612Z,8.90
2019-04-20T08:36:02.744Z,9.77
2019-04-20T08:38:51.566Z,11.10
2019-04-20T08:40:43.752Z,11.33
2019-04-20T08:43:26.133Z,10.27
2019-04-20T08:45:43.045Z,8.27
2019-04-20T08:48:14.191Z,9.70
2019-04-20T08:50:29.650Z,8.10
2019-04-20T08:53:15.924Z,10.77
2019-04-20T08:55:14.942Z,8.93
2019-04-20T08:57:24.735Z,8.17
2019-04-20T08:59:50.989Z,11.00
2019-04-20T09:02:15.761Z,8.85
2019-04-20T09:04:49.028Z,10.33
2019-04-20T09:07:11.706Z,9.40
2019-04-20T09:09:49.080Z,12.13
2019-04-20T09:12:12.076Z,8.63
2019-04-20T09:14:21.539Z,8.47
2019-04-20T09:16:51.769Z,10.20
2019-04-20T09:19:13.295Z,7.20
2019-04-20T09:21:43.732Z,10.27
2019-04-20T09:24:32.976Z,7.50
2019-04-20T09:26:42.243Z,6.37
2019-04-20T09:29:11.790Z,7.70
2019-04-20T09:31:40.941Z,7.60
2019-04-20T09:34:16.320Z,6.10
2019-04-20T09:36:42.135Z,8.07
2019-04-20T09:39:18.803Z,6.67
2019-04-20T09:41:58.803Z,6.73
2019-04-20T09:44:03.020Z,7.13
2019-04-20T09:46:26.470Z,6.13
2019-04-20T09:48:57.352Z,5.97
2019-04-20T09:51:33.438Z,7.33
2019-04-20T09:53:50.585Z,5.33
2019-04-20T09:56:19.801Z,6.27
2019-04-20T09:58:53.371Z,6.77
2019-04-20T10:01:09.791Z,6.20
2019-04-20T10:03:22.661Z,6.67
2019-04-20T10:05:47.454Z,6.17
2019-04-20T10:08:11.806Z,5.60
2019-04-20T10:10:40.582Z,6.80
2019-04-20T10:13:00.632Z,7.20
2019-04-20T10:15:26.628Z,7.53
2019-04-20T10:17:49.914Z,6.42
2019-04-20T10:20:20.834Z,7.13
2019-04-20T10:22:38.646Z,7.27
2019-04-20T10:25:02.667Z,7.42
2019-04-20T10:27:26.543Z,7.67
2019-04-20T10:29:51.353Z,5.95
2019-04-20T10:32:16.023Z,8.15
2019-04-20T10:34:40.935Z,8.48
2019-04-20T10:37:06.119Z,7.50
2019-04-20T10:39:31.234Z,5.58
2019-04-20T10:41:58.754Z,6.28
2019-04-20T10:44:20.927Z,7.28
2019-04-20T10:46:44.920Z,5.97
2019-04-20T10:49:09.771Z,7.00
2019-04-20T10:51:33.733Z,5.72
2019-04-20T10:53:58.323Z,5.97
2019-04-20T10:56:23.206Z,5.47
2019-04-20T10:58:47.509Z,8.25
2019-04-20T11:01:11.544Z,15.83
2019-04-20T11:03:36.484Z,19.25
2019-04-20T11:06:00.710Z,56.40
2019-04-20T11:08:24.523Z,7.37
2019-04-20T11:10:59.250Z,23.20
2019-04-20T11:13:13.203Z,21.65
2019-04-20T11:15:36.817Z,32.67
2019-04-20T11:18:01.563Z,12.07
2019-04-20T11:20:25.547Z,11.88
2019-04-20T11:22:50.441Z,8.85
2019-04-20T11:25:14.482Z,7.30
2019-04-20T11:27:38.415Z,8.63
2019-04-20T11:30:02.477Z,8.85
2019-04-20T11:32:26.300Z,7.80
2019-04-20T11:34:49.662Z,7.47
2019-04-20T11:37:13.191Z,7.25
2019-04-20T11:39:37.011Z,9.50
2019-04-20T11:42:01.591Z,7.65
2019-04-20T11:44:26.919Z,8.98
2019-04-20T11:46:50.406Z,9.28
2019-04-20T11:49:15.353Z,8.20
2019-04-20T11:51:39.458Z,8.55
2019-04-20T11:54:04.224Z,7.28
2019-04-20T11:56:34.400Z,8.85
2019-04-20T11:58:53.127Z,12.28
2019-04-20T12:01:23.422Z,7.70
2019-04-20T12:03:55.478Z,7.33
2019-04-20T12:06:10.971Z,8.08
2019-04-20T12:08:37.465Z,8.63
2019-04-20T12:11:06.421Z,8.63
2019-04-20T12:13:26.877Z,9.93
2019-04-20T12:15:51.731Z,7.95
2019-04-20T12:18:15.769Z,9.55
2019-04-20T12:20:39.242Z,9.75
2019-04-20T12:23:02.702Z,9.55
2019-04-20T12:25:26.409Z,8.30
2019-04-20T12:27:55.066Z,9.60
2019-04-20T12:30:15.549Z,9.00
2019-04-20T12:32:42.945Z,11.33
2019-04-20T12:35:08.226Z,10.00
2019-04-20T12:37:34.160Z,11.40
2019-04-20T12:39:57.483Z,9.10
2019-04-20T12:42:21.237Z,10.35
2019-04-20T12:44:45.904Z,11.90
2019-04-20T12:47:10.070Z,8.75
2019-04-20T12:49:33.694Z,11.50
2019-04-20T12:52:00.101Z,9.90
2019-04-20T12:54:22.768Z,9.30
2019-04-20T12:56:46.577Z,11.20
2019-04-20T12:59:10.010Z,14.75
2019-04-20T13:01:33.535Z,11.57
2019-04-20T13:03:57.403Z,10.55
2019-04-20T13:06:21.755Z,10.32
2019-04-20T13:08:51.761Z,10.25
2019-04-20T13:11:24.726Z,9.30
2019-04-20T13:13:52.829Z,10.88
2019-04-20T13:16:30.361Z,10.18
2019-04-20T13:18:55.398Z,9.50
2019-04-20T13:21:19.246Z,9.23
2019-04-20T13:23:42.889Z,8.60
2019-04-20T13:26:08.644Z,13.30
2019-04-20T13:28:32.835Z,18.52
2019-04-20T13:30:57.766Z,16.05
2019-04-20T13:33:21.545Z,20.77
2019-04-20T13:35:48.097Z,17.73
2019-04-20T13:38:12.047Z,31.33
2019-04-20T13:40:35.715Z,13.98
2019-04-20T13:42:59.580Z,15.63
2019-04-20T13:45:24.586Z,15.87
2019-04-20T13:47:48.703Z,10.43
2019-04-20T13:50:13.175Z,12.13
2019-04-20T13:52:38.479Z,13.38
2019-04-20T13:55:02.392Z,8.90
2019-04-20T13:57:37.903Z,9.03
2019-04-20T14:00:04.219Z,9.38
2019-04-20T14:02:33.082Z,8.55
2019-04-20T14:04:58.981Z,7.80
2019-04-20T14:07:24.064Z,9.43
2019-04-20T14:09:47.840Z,12.05
2019-04-20T14:12:22.076Z,10.43
2019-04-20T14:14:37.212Z,8.13
2019-04-20T14:17:01.165Z,10.45
2019-04-20T14:19:25.139Z,10.65
2019-04-20T14:21:48.582Z,8.63
2019-04-20T14:24:13.070Z,8.05
2019-04-20T14:26:39.485Z,9.17
2019-04-20T14:29:02.967Z,8.45
2019-04-20T14:31:27.884Z,12.03
2019-04-20T14:33:51.367Z,9.48
2019-04-20T14:36:14.965Z,10.30
2019-04-20T14:38:38.418Z,9.68
2019-04-20T14:41:02.244Z,10.08
2019-04-20T14:43:26.848Z,11.57
2019-04-20T14:45:50.919Z,8.73
2019-04-20T14:48:14.379Z,8.28
2019-04-20T14:50:38.076Z,10.13
2019-04-20T14:53:01.828Z,9.55
2019-04-20T14:55:25.834Z,8.73
2019-04-20T14:57:49.827Z,9.73
2019-04-20T15:00:15.525Z,12.35
2019-04-20T15:02:40.288Z,9.45
2019-04-20T15:05:07.400Z,9.70
2019-04-20T15:07:31.101Z,10.88
2019-04-20T15:09:55.112Z,9.73
2019-04-20T15:12:19.029Z,14.37
2019-04-20T15:14:42.792Z,10.23
2019-04-20T15:17:07.058Z,9.33
2019-04-20T15:19:33.397Z,9.13
2019-04-20T15:21:59.815Z,10.60
2019-04-20T15:24:23.757Z,22.80
2019-04-20T15:26:48.656Z,9.58
2019-04-20T15:29:12.537Z,11.45
2019-04-20T15:31:36.435Z,10.48
2019-04-20T15:34:01.238Z,12.40
2019-04-20T15:36:24.719Z,12.50
2019-04-20T15:38:49.346Z,11.35
2019-04-20T15:41:14.766Z,10.20
2019-04-20T15:43:39.159Z,11.22
2019-04-20T15:46:03.404Z,10.45
2019-04-20T15:48:28.050Z,13.08
2019-04-20T15:50:51.917Z,11.08
2019-04-20T15:53:15.673Z,11.25
2019-04-20T15:55:41.415Z,10.32
2019-04-20T15:58:06.559Z,13.70
2019-04-20T16:00:29.833Z,10.43
2019-04-20T16:02:54.930Z,11.35
2019-04-20T16:05:20.060Z,11.12
2019-04-20T16:07:50.643Z,15.10
2019-04-20T16:10:09.561Z,11.22
2019-04-20T16:12:33.133Z,11.30
2019-04-20T16:14:57.681Z,13.98
2019-04-20T16:17:24.284Z,12.75
2019-04-20T16:19:55.380Z,12.60
2019-04-20T16:22:12.152Z,11.70
2019-04-20T16:24:40.720Z,15.25
2019-04-20T16:27:05.735Z,11.85
2019-04-20T16:29:29.448Z,12.07
2019-04-20T16:31:54.232Z,13.22
2019-04-20T16:34:19.242Z,12.10
2019-04-20T16:36:44.365Z,11.03
2019-04-20T16:39:10.611Z,15.10
2019-04-20T16:41:33.688Z,16.67
2019-04-20T16:43:57.524Z,13.15
2019-04-20T16:46:23.651Z,12.10
2019-04-20T16:48:46.328Z,14.18
2019-04-20T16:51:10.921Z,15.58
2019-04-20T16:53:34.985Z,15.00
2019-04-20T16:55:58.961Z,11.10
2019-04-20T16:58:22.345Z,13.22
2019-04-20T17:00:46.328Z,12.18
2019-04-20T17:03:11.134Z,11.80
2019-04-20T17:05:35.044Z,11.38
2019-04-20T17:08:00.716Z,14.03
2019-04-20T17:10:26.256Z,11.33
2019-04-20T17:12:51.174Z,14.75
2019-04-20T17:15:15.928Z,15.13
2019-04-20T17:17:39.949Z,12.28
2019-04-20T17:20:07.333Z,12.53
2019-04-20T17:22:31.718Z,12.33
2019-04-20T17:24:55.664Z,12.37
2019-04-20T17:27:23.824Z,10.05
2019-04-20T17:30:05.218Z,9.65
2019-04-20T17:32:33.671Z,10.48
2019-04-20T17:35:09.181Z,10.55
2019-04-20T17:37:22.693Z,11.27
2019-04-20T17:40:06.680Z,12.28
2019-04-20T17:42:25.184Z,9.80
2019-04-20T17:44:51.899Z,10.53
2019-04-20T17:47:21.489Z,13.68
2019-04-20T17:49:41.323Z,12.78
2019-04-20T17:52:17.957Z,12.45
2019-04-20T17:54:19.842Z,11.08
2019-04-20T17:56:44.477Z,11.53
2019-04-20T17:59:08.262Z,14.78
2019-04-20T18:01:51.229Z,15.00
2019-04-20T18:04:37.003Z,11.95
2019-04-20T18:06:45.298Z,16.10
2019-04-20T18:09:06.667Z,19.37
2019-04-20T18:11:23.509Z,16.70
2019-04-20T18:13:49.321Z,11.50
2019-04-20T18:16:41.835Z,10.32
2019-04-20T18:19:05.646Z,12.58
2019-04-20T18:21:24.524Z,10.10
2019-04-20T18:23:51.305Z,12.82
2019-04-20T18:26:33.943Z,10.50
2019-04-20T18:29:05.182Z,15.30
2019-04-20T18:31:15.452Z,11.33
2019-04-20T18:33:40.545Z,10.75
2019-04-20T18:36:04.068Z,12.00
2019-04-20T18:38:30.504Z,13.38
2019-04-20T18:40:58.838Z,11.97
2019-04-20T18:43:22.236Z,14.73
2019-04-20T18:46:03.744Z,11.20
2019-04-20T18:48:36.517Z,15.43
2019-04-20T18:50:39.808Z,12.23
2019-04-20T18:52:59.956Z,12.03
2019-04-20T18:55:33.291Z,12.70
2019-04-20T18:57:49.142Z,11.90
2019-04-20T19:00:21.549Z,12.13
2019-04-20T19:02:44.573Z,14.53
2019-04-20T19:05:08.639Z,13.37
2019-04-20T19:07:39.996Z,14.43
2019-04-20T19:10:02.572Z,14.13
2019-04-20T19:12:34.511Z,16.67
2019-04-20T19:15:13.503Z,15.07
2019-04-20T19:17:45.190Z,16.10
2019-04-20T19:20:08.760Z,24.27
2019-04-20T19:22:33.013Z,14.07
2019-04-20T19:24:57.998Z,12.53
2019-04-20T19:27:31.994Z,11.33
2019-04-20T19:29:56.461Z,11.80
2019-04-20T19:32:34.249Z,12.53
2019-04-20T19:34:50.215Z,11.93
2019-04-20T19:37:14.310Z,10.53
2019-04-20T19:39:43.679Z,12.03
2019-04-20T19:42:02.928Z,9.83
2019-04-20T19:44:27.223Z,12.97
2019-04-20T19:47:05.392Z,17.00
2019-04-20T19:49:24.403Z,13.17
2019-04-20T19:52:02.754Z,14.83
2019-04-20T19:54:28.411Z,13.30
2019-04-20T19:56:43.940Z,13.67
2019-04-20T19:59:02.953Z,12.17
2019-04-20T20:01:15.682Z,12.90
2019-04-20T20:03:39.610Z,13.37
2019-04-20T20:06:03.885Z,12.07
2019-04-20T20:08:31.268Z,11.63
2019-04-20T20:10:52.745Z,13.77
2019-04-20T20:13:16.186Z,12.80
2019-04-20T20:15:41.816Z,15.57
2019-04-20T20:18:23.371Z,14.53
2019-04-20T20:20:52.928Z,11.97
2019-04-20T20:22:58.532Z,17.90
2019-04-20T20:25:24.377Z,13.33
2019-04-20T20:27:51.170Z,16.10
2019-04-20T20:30:20.401Z,12.93
2019-04-20T20:32:53.638Z,15.80
2019-04-20T20:35:12.642Z,13.73
2019-04-20T20:37:34.790Z,15.43
2019-04-20T20:39:59.517Z,15.47
2019-04-20T20:42:29.589Z,13.43
2019-04-20T20:44:50.565Z,13.00
2019-04-20T20:47:31.421Z,15.83
2019-04-20T20:49:56.884Z,20.83
2019-04-20T20:52:17.336Z,15.70
2019-04-20T20:54:36.422Z,18.57
2019-04-20T20:56:59.490Z,21.45
2019-04-20T20:59:26.849Z,22.37
2019-04-20T21:01:48.374Z,22.37
2019-04-20T21:04:04.990Z,21.17
2019-04-20T21:06:28.804Z,24.02
2019-04-20T21:08:56.000Z,21.47
2019-04-20T21:11:22.046Z,20.93
2019-04-20T21:13:47.278Z,24.13
2019-04-20T21:16:15.386Z,24.10
2019-04-20T21:18:50.359Z,25.63
2019-04-20T21:21:15.110Z,22.13
2019-04-20T21:23:36.684Z,22.03
2019-04-20T21:26:06.867Z,22.70
2019-04-20T21:28:31.114Z,22.70
2019-04-20T21:30:59.875Z,20.47
2019-04-20T21:33:20.780Z,24.10
2019-04-20T21:35:48.305Z,22.33
2019-04-20T21:38:13.178Z,22.57
2019-04-20T21:40:39.963Z,19.53
2019-04-20T21:43:05.209Z,22.13
2019-04-20T21:45:30.543Z,20.90
2019-04-20T21:47:52.472Z,20.57
2019-04-20T21:50:31.209Z,23.20
2019-04-20T21:52:46.764Z,22.30
2019-04-20T21:55:08.203Z,23.83
2019-04-20T21:57:37.424Z,19.30
2019-04-20T22:00:02.596Z,20.47
2019-04-20T22:02:27.141Z,19.67
2019-04-20T22:04:47.341Z,20.63
2019-04-20T22:07:12.377Z,24.67
2019-04-20T22:09:43.402Z,18.80
2019-04-20T22:12:02.113Z,18.30
2019-04-20T22:14:28.437Z,17.67
2019-04-20T22:16:53.791Z,19.53
2019-04-20T22:19:32.777Z,18.27
2019-04-20T22:21:53.350Z,19.47
2019-04-20T22:24:25.310Z,20.13
2019-04-20T22:26:45.855Z,21.63
2019-04-20T22:28:58.291Z,18.77
2019-04-20T22:31:22.290Z,23.03
2019-04-20T22:33:47.311Z,25.70
2019-04-20T22:36:12.637Z,20.27
2019-04-20T22:38:46.527Z,19.13
2019-04-20T22:41:09.267Z,20.17
2019-04-20T22:43:33.694Z,20.00
2019-04-20T22:45:54.303Z,20.53
2019-04-20T22:48:20.826Z,22.00
2019-04-20T22:51:01.716Z,20.60
2019-04-20T22:53:26.087Z,20.17
2019-04-20T22:55:54.922Z,24.80
2019-04-20T22:58:14.304Z,23.40
2019-04-20T23:00:36.660Z,21.07
2019-04-20T23:02:49.337Z,22.53
2019-04-20T23:05:13.133Z,20.67
2019-04-20T23:07:36.947Z,23.53
2019-04-20T23:10:03.075Z,22.97
2019-04-20T23:12:27.581Z,21.30
2019-04-20T23:14:52.194Z,19.30
2019-04-20T23:17:18.376Z,23.47
2019-04-20T23:19:48.484Z,21.63
2019-04-20T23:22:09.924Z,22.30
2019-04-20T23:24:31.351Z,22.00
2019-04-20T23:26:55.271Z,19.00
2019-04-20T23:29:22.679Z,20.80
2019-04-20T23:31:49.307Z,21.40
2019-04-20T23:34:14.369Z,20.20
2019-04-20T23:36:38.885Z,18.33
2019-04-20T23:39:02.902Z,20.67
2019-04-20T23:41:25.940Z,22.07
2019-04-20T23:43:54.938Z,17.40
2019-04-20T23:46:37.023Z,22.33
2019-04-20T23:49:27.255Z,18.40
2019-04-20T23:52:05.743Z,17.43
2019-04-20T23:54:17.653Z,17.67
2019-04-20T23:56:35.761Z,16.03
2019-04-20T23:58:59.826Z,18.20
